createdAt,value
2022-08-17T00:00:34.234Z,98473.16
2022-08-17T00:03:17.626Z,98564.44
2022-08-17T00:05:56.117Z,98594.81
2022-08-17T00:08:32.429Z,98576.00
2022-08-17T00:11:00.619Z,98492.44
2022-08-17T00:13:35.705Z,98587.19
2022-08-17T00:16:09.691Z,98509.31
2022-08-17T00:18:58.328Z,98557.66
2022-08-17T00:21:25.283Z,98529.03
2022-08-17T00:23:53.467Z,98559.81
2022-08-17T00:26:44.528Z,98596.84
2022-08-17T00:29:10.347Z,98590.25
2022-08-17T00:31:44.997Z,98554.44
2022-08-17T00:34:12.302Z,98546.66
2022-08-17T00:36:39.231Z,98578.13
2022-08-17T00:39:06.370Z,98547.28
2022-08-17T00:41:35.895Z,98534.50
2022-08-17T00:44:05.109Z,98535.47
2022-08-17T00:46:41.146Z,98582.31
2022-08-17T00:49:09.739Z,98564.72
2022-08-17T00:51:55.197Z,98571.88
2022-08-17T00:54:42.275Z,98509.88
2022-08-17T00:57:19.869Z,98567.84
2022-08-17T01:00:21.553Z,98592.44
2022-08-17T01:02:49.517Z,98519.88
2022-08-17T01:05:25.752Z,98608.97
2022-08-17T01:07:53.699Z,98595.00
2022-08-17T01:10:57.522Z,98490.25
2022-08-17T01:13:18.139Z,98527.94
2022-08-17T01:16:04.582Z,98525.72
2022-08-17T01:18:33.075Z,98536.94
2022-08-17T01:21:20.244Z,98554.09
2022-08-17T01:23:47.208Z,98526.66
2022-08-17T01:26:14.422Z,98511.88
2022-08-17T01:28:55.512Z,98451.97
2022-08-17T01:31:28.621Z,98562.34
2022-08-17T01:34:00.012Z,98565.59
2022-08-17T01:36:29.143Z,98493.66
2022-08-17T01:38:56.547Z,98514.50
2022-08-17T01:41:24.332Z,98494.44
2022-08-17T01:44:04.037Z,98524.81
2022-08-17T01:46:37.062Z,98571.31
2022-08-17T01:49:11.180Z,98535.34
2022-08-17T01:51:39.656Z,98550.16
2022-08-17T01:54:14.867Z,98527.69
2022-08-17T01:56:47.382Z,98511.00
2022-08-17T01:59:18.328Z,98476.31
2022-08-17T02:01:46.311Z,98514.66
2022-08-17T02:04:14.065Z,98469.50
2022-08-17T02:06:52.603Z,98541.84
2022-08-17T02:09:25.584Z,98550.25
2022-08-17T02:11:56.373Z,98502.06
2022-08-17T02:14:24.678Z,98520.44
2022-08-17T02:16:53.043Z,98529.75
2022-08-17T02:19:22.091Z,98544.97
2022-08-17T02:21:54.137Z,98531.81
2022-08-17T02:25:00.318Z,98473.16
2022-08-17T02:27:16.272Z,98496.47
2022-08-17T02:29:43.679Z,98538.50
2022-08-17T02:32:27.548Z,98568.78
2022-08-17T02:34:57.612Z,98606.47
2022-08-17T02:37:26.527Z,98620.50
2022-08-17T02:39:54.132Z,98498.66
2022-08-17T02:42:29.876Z,98501.69
2022-08-17T02:44:57.448Z,98577.25
2022-08-17T02:47:24.785Z,98574.50
2022-08-17T02:49:55.685Z,98657.97
2022-08-17T02:52:42.863Z,98558.50
2022-08-17T02:55:24.753Z,98536.13
2022-08-17T02:57:53.121Z,98643.94
2022-08-17T03:00:27.595Z,98663.22
2022-08-17T03:02:59.038Z,98579.97
2022-08-17T03:05:29.973Z,98609.69
2022-08-17T03:07:57.840Z,98679.63
2022-08-17T03:10:25.693Z,98650.13
2022-08-17T03:12:53.955Z,98674.72
2022-08-17T03:15:26.239Z,98565.28
2022-08-17T03:17:55.443Z,98614.31
2022-08-17T03:20:23.379Z,98642.16
2022-08-17T03:22:53.878Z,98637.97
2022-08-17T03:25:26.934Z,98635.50
2022-08-17T03:27:55.154Z,98663.22
2022-08-17T03:30:22.938Z,98670.63
2022-08-17T03:32:52.541Z,98634.53
2022-08-17T03:35:35.070Z,98475.13
2022-08-17T03:38:02.033Z,98608.22
2022-08-17T03:40:34.556Z,98570.47
2022-08-17T03:43:21.320Z,98489.47
2022-08-17T03:46:24.887Z,98522.06
2022-08-17T03:49:13.338Z,98498.16
2022-08-17T03:51:59.434Z,98551.56
2022-08-17T03:54:44.898Z,98564.63
2022-08-17T03:57:12.454Z,98524.50
2022-08-17T03:59:41.021Z,98498.22
2022-08-17T04:02:17.434Z,98460.44
2022-08-17T04:04:44.871Z,98522.75
2022-08-17T04:07:11.992Z,98530.91
2022-08-17T04:09:38.943Z,98523.50
2022-08-17T04:12:06.300Z,98486.56
2022-08-17T04:14:52.149Z,98530.91
2022-08-17T04:17:24.532Z,98503.25
2022-08-17T04:19:52.107Z,98609.19
2022-08-17T04:22:33.343Z,98644.94
2022-08-17T04:25:17.577Z,98501.41
2022-08-17T04:27:44.779Z,98494.03
2022-08-17T04:30:12.431Z,98532.66
2022-08-17T04:33:05.915Z,98576.22
2022-08-17T04:35:42.232Z,98656.72
2022-08-17T04:38:13.381Z,98651.44
2022-08-17T04:40:58.698Z,98620.91
2022-08-17T04:43:32.673Z,98636.13
2022-08-17T04:46:05.091Z,98656.75
2022-08-17T04:48:38.858Z,98649.00
2022-08-17T04:51:33.549Z,98587.06
2022-08-17T04:54:09.961Z,98635.78
2022-08-17T04:56:37.795Z,98610.16
2022-08-17T04:59:12.679Z,98692.06
2022-08-17T05:01:42.791Z,98642.56
2022-08-17T05:04:32.964Z,98529.63
2022-08-17T05:07:04.689Z,98525.63
2022-08-17T05:09:31.881Z,98584.84
2022-08-17T05:12:02.305Z,98570.56
2022-08-17T05:14:33.465Z,98609.13
2022-08-17T05:17:04.144Z,98612.22
2022-08-17T05:19:36.657Z,98560.88
2022-08-17T05:22:06.253Z,98592.56
2022-08-17T05:24:42.592Z,98557.69
2022-08-17T05:27:18.758Z,98532.78
2022-08-17T05:29:46.484Z,98617.75
2022-08-17T05:32:37.323Z,98530.63
2022-08-17T05:35:01.529Z,98604.06
2022-08-17T05:37:28.535Z,98493.66
2022-08-17T05:39:55.650Z,98610.88
2022-08-17T05:42:24.089Z,98593.88
2022-08-17T05:44:50.994Z,98553.94
2022-08-17T05:47:18.573Z,98516.00
2022-08-17T05:49:45.701Z,98545.59
2022-08-17T05:53:02.263Z,98481.75
2022-08-17T05:55:48.935Z,98467.59
2022-08-17T05:58:31.343Z,98395.75
2022-08-17T06:01:01.007Z,98409.31
2022-08-17T06:04:12.418Z,98401.84
2022-08-17T06:07:11.900Z,98362.88
2022-08-17T06:10:03.489Z,98341.31
2022-08-17T06:13:10.969Z,98363.72
2022-08-17T06:15:59.515Z,98441.50
2022-08-17T06:18:36.298Z,98352.69
2022-08-17T06:21:07.330Z,98410.19
2022-08-17T06:23:44.925Z,98381.91
2022-08-17T06:26:27.496Z,98371.69
2022-08-17T06:29:35.503Z,98432.06
2022-08-17T06:32:05.342Z,98391.59
2022-08-17T06:34:34.383Z,98442.41
2022-08-17T06:37:32.555Z,98465.22
2022-08-17T06:40:45.476Z,98452.63
2022-08-17T06:43:47.804Z,98513.09
2022-08-17T06:46:27.594Z,98514.59
2022-08-17T06:49:16.207Z,98531.25
2022-08-17T06:51:54.302Z,98495.06
2022-08-17T06:55:18.030Z,98517.28
2022-08-17T06:57:59.780Z,98513.91
2022-08-17T07:00:41.725Z,98505.66
2022-08-17T07:03:09.769Z,98525.13
2022-08-17T07:05:57.965Z,98449.31
2022-08-17T07:08:42.581Z,98434.25
2022-08-17T07:11:17.533Z,98521.59
2022-08-17T07:14:17.353Z,98440.47
2022-08-17T07:16:50.717Z,98422.47
2022-08-17T07:19:25.111Z,98557.97
2022-08-17T07:22:22.014Z,98541.66
2022-08-17T07:24:58.295Z,98494.94
2022-08-17T07:27:41.898Z,98446.00
2022-08-17T07:30:28.759Z,98474.31
2022-08-17T07:33:08.456Z,98519.75
2022-08-17T07:35:48.143Z,98533.50
2022-08-17T07:38:25.890Z,98578.41
2022-08-17T07:41:03.214Z,98480.59
2022-08-17T07:43:39.325Z,98544.25
2022-08-17T07:46:52.816Z,98516.09
2022-08-17T07:49:32.474Z,98468.41
2022-08-17T07:52:23.954Z,98517.59
2022-08-17T07:54:56.347Z,98536.63
2022-08-17T07:57:32.005Z,98603.31
2022-08-17T08:00:01.962Z,98564.97
2022-08-17T08:02:44.002Z,98623.31
2022-08-17T08:05:29.886Z,98548.84
2022-08-17T08:08:42.380Z,98601.16
2022-08-17T08:11:15.459Z,98616.59
2022-08-17T08:13:45.896Z,98630.00
2022-08-17T08:16:29.203Z,98602.72
2022-08-17T08:19:02.095Z,98660.75
2022-08-17T08:22:02.545Z,98573.28
2022-08-17T08:24:45.394Z,98582.06
2022-08-17T08:27:50.429Z,98584.53
2022-08-17T08:30:21.729Z,98586.00
2022-08-17T08:33:17.490Z,98598.06
2022-08-17T08:36:07.809Z,98599.88
2022-08-17T08:38:39.597Z,98608.78
2022-08-17T08:41:50.861Z,98657.69
2022-08-17T08:45:07.795Z,98628.72
2022-08-17T08:48:23.001Z,98636.53
2022-08-17T08:51:14.349Z,98670.16
2022-08-17T08:54:13.591Z,98692.56
2022-08-17T08:57:19.219Z,98719.47
2022-08-17T09:00:15.270Z,98724.34
2022-08-17T09:03:15.027Z,98744.16
2022-08-17T09:06:37.423Z,98752.59
2022-08-17T09:09:09.098Z,98755.34
2022-08-17T09:12:22.703Z,98723.44
2022-08-17T09:15:15.950Z,98742.81
2022-08-17T09:18:14.652Z,98754.25
2022-08-17T09:20:55.478Z,98753.16
2022-08-17T09:23:33.277Z,98798.44
2022-08-17T09:26:31.812Z,98752.38
2022-08-17T09:29:09.908Z,98742.72
2022-08-17T09:31:59.583Z,98715.25
2022-08-17T09:34:38.443Z,98632.31
2022-08-17T09:37:25.017Z,98666.16
2022-08-17T09:40:09.437Z,98654.47
2022-08-17T09:43:16.035Z,98666.53
2022-08-17T09:45:57.191Z,98772.97
2022-08-17T09:48:43.956Z,98673.28
2022-08-17T09:51:32.577Z,98665.34
2022-08-17T09:54:20.930Z,98629.81
2022-08-17T09:57:29.886Z,98582.47
2022-08-17T10:00:26.901Z,98607.09
2022-08-17T10:03:48.911Z,98655.41
2022-08-17T10:06:24.710Z,98668.06
2022-08-17T10:09:24.625Z,98647.69
2022-08-17T10:12:19.978Z,98666.44
2022-08-17T10:15:17.587Z,98680.25
2022-08-17T10:18:54.602Z,98651.31
2022-08-17T10:21:44.098Z,98679.50
2022-08-17T10:25:23.227Z,98639.47
2022-08-17T10:28:19.765Z,98663.91
2022-08-17T10:31:16.787Z,98634.69
2022-08-17T10:34:00.460Z,98694.84
2022-08-17T10:36:56.048Z,98642.88
2022-08-17T10:40:00.836Z,98645.28
2022-08-17T10:42:44.567Z,98629.31
2022-08-17T10:45:26.340Z,98626.78
2022-08-17T10:48:06.245Z,98621.75
2022-08-17T10:51:00.000Z,98649.13
2022-08-17T10:53:32.990Z,98631.13
2022-08-17T10:56:12.338Z,98641.59
2022-08-17T10:59:01.075Z,98642.22
2022-08-17T11:02:01.134Z,98680.75
2022-08-17T11:04:48.861Z,98660.09
2022-08-17T11:07:45.436Z,98652.50
2022-08-17T11:10:42.993Z,98643.47
2022-08-17T11:13:44.744Z,98653.78
2022-08-17T11:16:49.736Z,98665.91
2022-08-17T11:19:44.146Z,98700.41
2022-08-17T11:22:48.948Z,98688.75
2022-08-17T11:25:20.168Z,98730.94
2022-08-17T11:27:53.644Z,98724.59
2022-08-17T11:30:40.522Z,98672.41
2022-08-17T11:33:29.379Z,98673.38
2022-08-17T11:36:33.123Z,98708.66
2022-08-17T11:39:40.821Z,98674.38
2022-08-17T11:42:42.290Z,98719.88
2022-08-17T11:45:37.057Z,98655.38
2022-08-17T11:49:08.936Z,98653.94
2022-08-17T11:52:01.344Z,98651.47
2022-08-17T11:54:34.123Z,98647.75
2022-08-17T11:57:27.236Z,98664.28
2022-08-17T12:00:03.060Z,98662.53
2022-08-17T12:02:36.142Z,98632.88
2022-08-17T12:05:16.972Z,98664.78
2022-08-17T12:08:08.426Z,98651.06
2022-08-17T12:10:47.985Z,98639.16
2022-08-17T12:13:17.860Z,98610.50
2022-08-17T12:15:50.632Z,98636.31
2022-08-17T12:18:32.324Z,98624.84
2022-08-17T12:21:27.640Z,98617.91
2022-08-17T12:24:35.515Z,98622.50
2022-08-17T12:27:06.710Z,98621.94
2022-08-17T12:29:39.134Z,98585.75
2022-08-17T12:32:13.156Z,98568.38
2022-08-17T12:34:43.296Z,98561.34
2022-08-17T12:37:26.371Z,98583.31
2022-08-17T12:40:08.359Z,98580.09
2022-08-17T12:42:39.322Z,98567.47
2022-08-17T12:45:22.121Z,98599.53
2022-08-17T12:47:49.464Z,98556.50
2022-08-17T12:50:29.485Z,98592.56
2022-08-17T12:53:01.961Z,98560.03
2022-08-17T12:55:35.345Z,98573.75
2022-08-17T12:58:03.054Z,98556.25
2022-08-17T13:00:38.123Z,98533.00
2022-08-17T13:03:22.098Z,98539.75
2022-08-17T13:06:34.213Z,98533.81
2022-08-17T13:09:35.830Z,98509.75
2022-08-17T13:12:08.354Z,98523.19
2022-08-17T13:14:35.798Z,98478.56
2022-08-17T13:17:11.044Z,98503.00
2022-08-17T13:19:50.220Z,98513.19
2022-08-17T13:22:23.478Z,98496.72
2022-08-17T13:25:05.486Z,98503.94
2022-08-17T13:27:34.177Z,98488.84
2022-08-17T13:30:11.167Z,98482.41
2022-08-17T13:32:46.510Z,98486.84
2022-08-17T13:35:40.084Z,98464.13
2022-08-17T13:38:36.586Z,98469.31
2022-08-17T13:41:06.313Z,98472.16
2022-08-17T13:43:50.644Z,98458.47
2022-08-17T13:46:27.898Z,98470.28
2022-08-17T13:49:12.091Z,98476.50
2022-08-17T13:51:46.182Z,98443.88
2022-08-17T13:54:40.159Z,98436.81
2022-08-17T13:57:22.914Z,98479.00
2022-08-17T13:59:55.917Z,98420.13
2022-08-17T14:05:06.115Z,98426.81
2022-08-17T14:07:39.895Z,98416.75
2022-08-17T14:10:17.813Z,98440.53
2022-08-17T14:12:45.579Z,98443.97
2022-08-17T14:15:16.668Z,98453.78
2022-08-17T14:17:44.227Z,98428.31
2022-08-17T14:20:13.535Z,98425.75
2022-08-17T14:22:46.326Z,98406.88
2022-08-17T14:25:17.710Z,98451.53
2022-08-17T14:27:52.262Z,98435.50
2022-08-17T14:30:24.676Z,98463.22
2022-08-17T14:32:53.355Z,98454.91
2022-08-17T14:35:23.498Z,98434.47
2022-08-17T14:37:52.155Z,98458.00
2022-08-17T14:40:20.832Z,98448.66
2022-08-17T14:42:48.372Z,98461.16
2022-08-17T14:45:27.134Z,98437.72
2022-08-17T14:48:07.910Z,98466.59
2022-08-17T14:50:39.338Z,98436.59
2022-08-17T14:53:10.202Z,98433.88
2022-08-17T14:55:40.858Z,98427.63
2022-08-17T14:58:09.266Z,98413.97
2022-08-17T15:00:37.888Z,98424.22
2022-08-17T15:03:05.284Z,98467.28
2022-08-17T15:05:36.787Z,98520.78
2022-08-17T15:08:05.770Z,98545.22
2022-08-17T15:10:33.584Z,98568.75
2022-08-17T15:13:01.216Z,98543.41
2022-08-17T15:15:29.713Z,98410.75
2022-08-17T15:17:57.784Z,98444.75
2022-08-17T15:20:29.022Z,98445.34
2022-08-17T15:22:59.150Z,98392.75
2022-08-17T15:25:29.994Z,98456.16
2022-08-17T15:27:58.090Z,98416.53
2022-08-17T15:30:26.543Z,98392.50
2022-08-17T15:32:55.449Z,98331.56
2022-08-17T15:35:30.144Z,98355.25
2022-08-17T15:38:11.619Z,98450.97
2022-08-17T15:40:45.393Z,98312.91
2022-08-17T15:43:27.376Z,98337.34
2022-08-17T15:46:01.786Z,98342.06
2022-08-17T15:48:42.108Z,98405.28
2022-08-17T15:51:12.170Z,98442.28
2022-08-17T15:53:42.446Z,98423.16
2022-08-17T15:56:11.264Z,98509.25
2022-08-17T15:58:38.466Z,98388.13
2022-08-17T16:01:14.889Z,98440.16
2022-08-17T16:04:06.710Z,98494.81
2022-08-17T16:06:34.751Z,98437.59
2022-08-17T16:09:01.890Z,98426.53
2022-08-17T16:11:29.022Z,98443.06
2022-08-17T16:13:56.144Z,98510.88
2022-08-17T16:16:24.206Z,98489.88
2022-08-17T16:18:56.988Z,98437.72
2022-08-17T16:21:26.040Z,98389.28
2022-08-17T16:24:00.956Z,98459.84
2022-08-17T16:26:32.095Z,98447.41
2022-08-17T16:29:01.403Z,98424.34
2022-08-17T16:31:29.334Z,98449.06
2022-08-17T16:34:16.369Z,98481.63
2022-08-17T16:36:54.996Z,98395.41
2022-08-17T16:39:27.596Z,98438.44
2022-08-17T16:41:56.156Z,98412.91
2022-08-17T16:44:23.842Z,98474.38
2022-08-17T16:46:51.324Z,98451.97
2022-08-17T16:49:35.509Z,98378.50
2022-08-17T16:52:10.888Z,98438.44
2022-08-17T16:54:43.477Z,98328.13
2022-08-17T16:57:13.182Z,98414.91
2022-08-17T16:59:43.654Z,98361.44
2022-08-17T17:02:24.866Z,98366.03
2022-08-17T17:05:10.733Z,98396.53
2022-08-17T17:08:09.128Z,98434.81
2022-08-17T17:10:46.083Z,98432.78
2022-08-17T17:13:41.357Z,98428.13
2022-08-17T17:16:21.881Z,98463.25
2022-08-17T17:19:11.084Z,98332.31
2022-08-17T17:21:52.046Z,98433.69
2022-08-17T17:24:52.718Z,98343.81
2022-08-17T17:27:47.497Z,98415.66
2022-08-17T17:30:29.509Z,98420.00
2022-08-17T17:33:10.860Z,98404.28
2022-08-17T17:35:54.070Z,98406.97
2022-08-17T17:38:32.949Z,98433.31
2022-08-17T17:41:10.885Z,98363.78
2022-08-17T17:43:40.046Z,98363.59
2022-08-17T17:46:37.933Z,98442.00
2022-08-17T17:49:06.215Z,98456.16
2022-08-17T17:52:09.302Z,98506.09
2022-08-17T17:54:56.437Z,98398.28
2022-08-17T17:57:45.315Z,98411.81
2022-08-17T18:00:15.378Z,98485.44
2022-08-17T18:03:01.460Z,98466.59
2022-08-17T18:05:37.413Z,98487.44
2022-08-17T18:08:16.595Z,98526.28
2022-08-17T18:11:06.957Z,98480.91
2022-08-17T18:13:53.385Z,98580.44
2022-08-17T18:16:20.851Z,98526.41
2022-08-17T18:18:52.027Z,98527.19
2022-08-17T18:21:38.053Z,98548.75
2022-08-17T18:24:08.173Z,98634.09
2022-08-17T18:26:57.103Z,98651.13
2022-08-17T18:29:57.764Z,98683.13
2022-08-17T18:32:35.824Z,98672.53
2022-08-17T18:35:08.777Z,98602.41
2022-08-17T18:37:47.829Z,98552.13
2022-08-17T18:40:26.063Z,98618.78
2022-08-17T18:43:23.374Z,98590.56
2022-08-17T18:45:54.198Z,98574.44
2022-08-17T18:48:58.917Z,98644.59
2022-08-17T18:51:41.577Z,98646.94
2022-08-17T18:54:22.402Z,98602.94
2022-08-17T18:56:56.155Z,98559.09
2022-08-17T18:59:49.449Z,98644.28
2022-08-17T19:02:43.447Z,98681.09
2022-08-17T19:05:41.714Z,98712.94
2022-08-17T19:08:20.253Z,98742.97
2022-08-17T19:11:03.519Z,98589.31
2022-08-17T19:13:43.135Z,98565.88
2022-08-17T19:16:22.308Z,98611.56
2022-08-17T19:19:20.328Z,98734.75
2022-08-17T19:21:56.261Z,98639.78
2022-08-17T19:24:30.803Z,98624.91
2022-08-17T19:27:14.350Z,98696.50
2022-08-17T19:30:08.441Z,98720.50
2022-08-17T19:32:36.105Z,98628.34
2022-08-17T19:35:06.821Z,98680.75
2022-08-17T19:37:51.529Z,98761.09
2022-08-17T19:41:01.730Z,98766.13
2022-08-17T19:44:01.531Z,98784.91
2022-08-17T19:47:00.595Z,98739.97
2022-08-17T19:49:48.490Z,98749.69
2022-08-17T19:52:54.264Z,98720.47
2022-08-17T19:55:43.137Z,98797.06
2022-08-17T19:58:34.533Z,98827.34
2022-08-17T20:01:01.744Z,98824.09
2022-08-17T20:03:45.884Z,98718.78
2022-08-17T20:06:14.084Z,98805.91
2022-08-17T20:08:58.623Z,98834.38
2022-08-17T20:11:34.083Z,98685.13
2022-08-17T20:14:13.165Z,98764.69
2022-08-17T20:16:40.544Z,98750.53
2022-08-17T20:19:52.946Z,98798.00
2022-08-17T20:22:51.953Z,98822.72
2022-08-17T20:25:57.020Z,98851.63
2022-08-17T20:28:31.833Z,98827.22
2022-08-17T20:30:59.314Z,98803.09
2022-08-17T20:33:37.225Z,98866.53
2022-08-17T20:36:20.504Z,98869.16
2022-08-17T20:38:58.836Z,98859.78
2022-08-17T20:41:30.989Z,98840.50
2022-08-17T20:43:58.638Z,98853.94
2022-08-17T20:46:37.471Z,98894.38
2022-08-17T20:49:27.004Z,98859.69
2022-08-17T20:52:35.543Z,98787.59
2022-08-17T20:55:04.498Z,98892.78
2022-08-17T20:57:31.768Z,98834.44
2022-08-17T21:00:29.365Z,98844.00
2022-08-17T21:03:26.713Z,98852.81
2022-08-17T21:06:17.160Z,98820.16
2022-08-17T21:09:12.785Z,98877.19
2022-08-17T21:12:02.240Z,98803.78
2022-08-17T21:15:04.000Z,98828.69
2022-08-17T21:17:48.325Z,98891.06
2022-08-17T21:21:15.378Z,98819.19
2022-08-17T21:23:56.075Z,98860.41
2022-08-17T21:26:58.145Z,98842.28
2022-08-17T21:29:31.990Z,98876.81
2022-08-17T21:31:59.718Z,98852.28
2022-08-17T21:34:38.836Z,98897.47
2022-08-17T21:37:23.868Z,98886.69
2022-08-17T21:40:18.738Z,98909.09
2022-08-17T21:42:59.340Z,98864.97
2022-08-17T21:45:29.898Z,98817.69
2022-08-17T21:48:20.427Z,98866.28
2022-08-17T21:51:12.110Z,98792.63
2022-08-17T21:53:42.380Z,98792.72
2022-08-17T21:56:12.658Z,98825.41
2022-08-17T21:58:48.294Z,98789.31
2022-08-17T22:01:23.746Z,98799.50
2022-08-17T22:03:58.486Z,98854.84
2022-08-17T22:06:57.347Z,98832.09
2022-08-17T22:09:45.454Z,98828.97
2022-08-17T22:12:18.483Z,98789.78
2022-08-17T22:15:00.252Z,98847.28
2022-08-17T22:17:36.563Z,98787.16
2022-08-17T22:20:17.741Z,98881.44
2022-08-17T22:23:12.099Z,98846.97
2022-08-17T22:26:02.102Z,98783.69
2022-08-17T22:28:40.577Z,98815.63
2022-08-17T22:31:14.465Z,98894.94
2022-08-17T22:34:07.521Z,98821.91
2022-08-17T22:36:39.388Z,98855.19
2022-08-17T22:39:09.429Z,98885.66
2022-08-17T22:41:57.154Z,98863.47
2022-08-17T22:44:37.656Z,98836.19
2022-08-17T22:47:17.234Z,98819.78
2022-08-17T22:49:53.904Z,98874.06
2022-08-17T22:53:00.579Z,98848.53
2022-08-17T22:55:50.421Z,98869.69
2022-08-17T22:58:43.216Z,98889.97
2022-08-17T23:01:34.836Z,98811.81
2022-08-17T23:04:28.898Z,98797.28
2022-08-17T23:06:56.401Z,98857.97
2022-08-17T23:09:23.939Z,98812.31
2022-08-17T23:11:58.813Z,98766.19
2022-08-17T23:14:31.398Z,98849.09
2022-08-17T23:16:59.362Z,98855.63
2022-08-17T23:19:28.058Z,98868.69
2022-08-17T23:21:56.478Z,98844.03
2022-08-17T23:24:27.990Z,98825.75
2022-08-17T23:26:59.400Z,98918.47
2022-08-17T23:29:29.386Z,98888.28
2022-08-17T23:31:59.740Z,98850.97
2022-08-17T23:34:28.391Z,98761.97
2022-08-17T23:36:56.008Z,98800.84
2022-08-17T23:39:27.864Z,98893.00
2022-08-17T23:41:58.396Z,98841.00
2022-08-17T23:44:26.334Z,98838.72
2022-08-17T23:46:54.590Z,98835.50
2022-08-17T23:49:22.198Z,98878.75
2022-08-17T23:51:49.420Z,98861.97
2022-08-17T23:54:41.500Z,98868.97
2022-08-17T23:57:09.332Z,98876.94
2022-08-17T23:59:37.139Z,98906.56
